• Join FlightAware (Why Join?)
  • Login
  • US Flag 
11:28AM EDT


 

Airport Tracker/Info


-or-


 

Live Flight TrackerFlight Track Log ✈ UAL6129 ✈ 30-Jun-2013 ✈ KORD - KCWA

Flight Track Log - Related Links

Times and Time Zones

All times are in EDT time to prevent confusion due to time zone crossing. See the UAL6129 flight status page for this flight to view local times or setup timezone preferences in your user account.

Time Position Orientation Groundspeed Altitude Reporting Facility
EDT Latitude Longitude Course Direction KTS MPH feet Rate Location/Type
10:14PM 42.0000 -87.9333 352° North 152 175 2,300  Level Chicago TRACON
10:15PM 42.0500 -87.9167 14° North 196 226 4,100 1,860 Climbing Chicago TRACON
10:16PM 42.1000 -87.8833 26° Northeast 245 282 6,100 2,100 Climbing Chicago TRACON
10:17PM 42.1394 -87.8525 30° Northeast 253 291 7,800 2,280 Climbing Chicago Center
10:18PM 42.3220 -88.0097 350° North  Level FlightAware Approximate
10:18PM 42.2081 -87.8408 North 271 312 10,100  Level Chicago Center
10:19PM 42.4092 -88.0462 340° North  Level FlightAware Approximate
10:19PM 42.2814 -87.8719 343° North 280 322 12,500  Level Chicago Center
10:20PM 42.4993 -88.0665 352° North  Level FlightAware Approximate
10:20PM 42.3708 -87.9333 333° Northwest 306 352 13,800  Level Chicago Center
10:21PM 42.4578 -87.9931 333° Northwest 345 397 14,900 1,020 Climbing Chicago Center
10:22PM 42.5478 -88.0569 332° Northwest 362 417 15,900 1,020 Climbing Chicago Center
10:23PM 42.6422 -88.1228 333° Northwest 378 435 17,000 960 Climbing Chicago Center
10:24PM 42.7367 -88.1950 331° Northwest 386 444 17,900 900 Climbing Chicago Center
10:25PM 42.8336 -88.2672 331° Northwest 395 455 18,900 960 Climbing Chicago Center
10:26PM 42.9314 -88.3417 331° Northwest 401 461 19,900 540 Climbing Chicago Center
10:27PM 43.0328 -88.4175 331° Northwest 411 473 20,000  Climbing Chicago Center
10:28PM 43.1378 -88.4969 331° Northwest 427 491 20,000  Level Chicago Center
10:29PM 43.2411 -88.5764 331° Northwest 423 487 20,000  Level Chicago Center
10:30PM 43.3456 -88.6561 331° Northwest 423 487 20,000  Level Chicago Center
10:31PM 43.4500 -88.7367 331° Northwest 422 486 20,000  Level Chicago Center
10:32PM 43.5533 -88.8172 331° Northwest 422 486 20,000  Level Chicago Center
10:33PM 43.6725 -88.9100 331° Northwest 420 483 20,000 -300 Level Chicago Center
10:34PM 43.7750 -88.9894 331° Northwest 422 486 19,400 -780 Descending Chicago Center
10:36PM 43.8761 -89.0681 331° Northwest 416 479 18,500 -1,500 Descending Chicago Center
10:36PM 43.9503 -89.1269 330° Northwest 405 466 16,800 -2,220 Descending Minneapolis Center
10:37PM 44.0481 -89.2044 330° Northwest 389 448 14,600 -1,440 Descending Minneapolis Center
10:38PM 44.1372 -89.2736 331° Northwest 382 440 13,900 -300 Descending Minneapolis Center
10:39PM 44.2339 -89.3522 330° Northwest 384 442 14,000 -1,200 Climbing Minneapolis Center
10:40PM 44.3256 -89.4250 330° Northwest 362 417 11,500 -1,800 Descending Minneapolis Center
10:41PM 44.4078 -89.4900 331° Northwest 322 371 10,400 -1,500 Descending Minneapolis Center
10:42PM 44.4739 -89.5347 334° Northwest 277 319 8,500 -1,920 Descending Minneapolis Center
10:43PM 44.5403 -89.5831 333° Northwest 253 291 6,600 -1,920 Descending Minneapolis Center